Laceys Spring, Alabama
Current Conditions -  °F | °C
As of 1:58 AM on Friday 31 Oct 2014 (Local Time) from KHUA Reporting Station
Scattered Clouds Scattered Clouds  
Wind Chill: 47°   Ceiling: Unl
Heat Index: 47°   Visibility: 10mi
Dew Point: 43°   Wind: 2mph
Humidity: 87%   Direction: 10°N
Pressure: 30"   Gusts: NA
Location:  34.53°N, 86.6°W
Report Text: KHUA 310658Z AUTO 01002KT 10SM SCT120 SCT140 08/06 A3000 RMK AO2 SLPNO T00820061
Loading
Personal Weather Stations






























Interactive Weather Map
Tropical Storm Tracking
New forecast layout! Learn more

10-Day Weather Forecast

Advertisements
Track Severe Weather on mobile